sensor_id;sensor_type;location;lat;lon;timestamp;P1;durP1;ratioP1;P2;durP2;ratioP2
59504;SDS011;45321;53.200;5.814;2023-02-15T00:02:25;195.23;;;41.88;;
59504;SDS011;45321;53.200;5.814;2023-02-15T00:04:50;274.67;;;34.30;;
59504;SDS011;45321;53.200;5.814;2023-02-15T00:07:16;234.23;;;31.15;;
59504;SDS011;45321;53.200;5.814;2023-02-15T00:09:45;206.00;;;33.58;;
59504;SDS011;45321;53.200;5.814;2023-02-15T00:12:11;252.43;;;33.83;;
59504;SDS011;45321;53.200;5.814;2023-02-15T00:14:37;223.57;;;33.10;;
59504;SDS011;45321;53.200;5.814;2023-02-15T00:17:03;154.52;;;32.63;;
59504;SDS011;45321;53.200;5.814;2023-02-15T00:19:29;93.18;;;31.60;;
59504;SDS011;45321;53.200;5.814;2023-02-15T00:21:54;85.72;;;31.42;;
59504;SDS011;45321;53.200;5.814;2023-02-15T00:24:20;122.60;;;28.35;;
59504;SDS011;45321;53.200;5.814;2023-02-15T00:26:47;70.00;;;29.20;;
59504;SDS011;45321;53.200;5.814;2023-02-15T00:29:13;88.40;;;27.35;;
59504;SDS011;45321;53.200;5.814;2023-02-15T00:31:40;97.93;;;27.92;;
59504;SDS011;45321;53.200;5.814;2023-02-15T00:34:17;75.45;;;29.52;;
59504;SDS011;45321;53.200;5.814;2023-02-15T00:36:45;73.18;;;28.05;;
59504;SDS011;45321;53.200;5.814;2023-02-15T00:39:11;77.47;;;26.65;;
59504;SDS011;45321;53.200;5.814;2023-02-15T00:41:37;59.90;;;28.17;;
59504;SDS011;45321;53.200;5.814;2023-02-15T00:44:04;63.28;;;28.20;;
59504;SDS011;45321;53.200;5.814;2023-02-15T00:46:30;56.30;;;26.30;;
59504;SDS011;45321;53.200;5.814;2023-02-15T00:48:57;33.67;;;26.20;;
59504;SDS011;45321;53.200;5.814;2023-02-15T00:51:23;45.72;;;25.23;;
59504;SDS011;45321;53.200;5.814;2023-02-15T00:53:49;40.85;;;25.45;;
59504;SDS011;45321;53.200;5.814;2023-02-15T00:56:15;47.97;;;23.65;;
59504;SDS011;45321;53.200;5.814;2023-02-15T00:58:41;56.88;;;22.42;;
59504;SDS011;45321;53.200;5.814;2023-02-15T01:01:08;40.90;;;22.52;;
59504;SDS011;45321;53.200;5.814;2023-02-15T01:03:36;39.00;;;21.58;;
59504;SDS011;45321;53.200;5.814;2023-02-15T01:06:02;90.10;;;21.17;;
59504;SDS011;45321;53.200;5.814;2023-02-15T01:08:29;54.72;;;20.90;;
59504;SDS011;45321;53.200;5.814;2023-02-15T01:10:55;55.10;;;20.40;;
59504;SDS011;45321;53.200;5.814;2023-02-15T01:13:21;30.65;;;19.52;;
59504;SDS011;45321;53.200;5.814;2023-02-15T01:15:53;38.35;;;18.92;;
59504;SDS011;45321;53.200;5.814;2023-02-15T01:18:19;31.38;;;18.88;;
59504;SDS011;45321;53.200;5.814;2023-02-15T01:20:46;24.25;;;19.58;;
59504;SDS011;45321;53.200;5.814;2023-02-15T01:23:12;30.90;;;19.50;;
59504;SDS011;45321;53.200;5.814;2023-02-15T01:25:38;22.10;;;19.42;;
59504;SDS011;45321;53.200;5.814;2023-02-15T01:28:04;25.15;;;21.05;;
59504;SDS011;45321;53.200;5.814;2023-02-15T01:30:30;27.40;;;20.13;;
59504;SDS011;45321;53.200;5.814;2023-02-15T01:32:56;31.33;;;21.08;;
59504;SDS011;45321;53.200;5.814;2023-02-15T01:35:22;25.50;;;21.83;;
59504;SDS011;45321;53.200;5.814;2023-02-15T01:37:48;70.15;;;21.40;;
59504;SDS011;45321;53.200;5.814;2023-02-15T01:40:15;59.22;;;20.52;;
59504;SDS011;45321;53.200;5.814;2023-02-15T01:42:43;46.97;;;21.77;;
59504;SDS011;45321;53.200;5.814;2023-02-15T01:45:23;34.33;;;21.23;;
59504;SDS011;45321;53.200;5.814;2023-02-15T01:47:56;34.58;;;22.30;;
59504;SDS011;45321;53.200;5.814;2023-02-15T01:53:03;43.17;;;20.10;;
59504;SDS011;45321;53.200;5.814;2023-02-15T01:55:47;34.10;;;21.65;;
59504;SDS011;45321;53.200;5.814;2023-02-15T01:58:18;58.17;;;20.50;;
59504;SDS011;45321;53.200;5.814;2023-02-15T02:00:46;75.80;;;19.90;;
59504;SDS011;45321;53.200;5.814;2023-02-15T02:03:12;42.28;;;20.55;;
59504;SDS011;45321;53.200;5.814;2023-02-15T02:05:38;42.47;;;21.35;;
59504;SDS011;45321;53.200;5.814;2023-02-15T02:08:05;54.60;;;20.55;;
59504;SDS011;45321;53.200;5.814;2023-02-15T02:10:34;27.48;;;19.73;;
59504;SDS011;45321;53.200;5.814;2023-02-15T02:13:04;29.05;;;18.92;;
59504;SDS011;45321;53.200;5.814;2023-02-15T02:15:44;73.93;;;19.33;;
59504;SDS011;45321;53.200;5.814;2023-02-15T02:21:12;47.92;;;17.67;;
59504;SDS011;45321;53.200;5.814;2023-02-15T02:35:16;52.97;;;19.95;;
59504;SDS011;45321;53.200;5.814;2023-02-15T02:38:32;100.97;;;19.42;;
59504;SDS011;45321;53.200;5.814;2023-02-15T02:40:55;53.75;;;18.95;;
59504;SDS011;45321;53.200;5.814;2023-02-15T02:43:32;31.73;;;18.35;;
59504;SDS011;45321;53.200;5.814;2023-02-15T02:46:20;32.13;;;19.30;;
59504;SDS011;45321;53.200;5.814;2023-02-15T02:48:54;28.65;;;18.42;;
59504;SDS011;45321;53.200;5.814;2023-02-15T02:51:20;49.28;;;19.50;;
59504;SDS011;45321;53.200;5.814;2023-02-15T02:53:48;39.17;;;18.83;;
59504;SDS011;45321;53.200;5.814;2023-02-15T02:58:55;40.17;;;19.52;;
59504;SDS011;45321;53.200;5.814;2023-02-15T03:01:52;35.83;;;18.67;;
59504;SDS011;45321;53.200;5.814;2023-02-15T03:04:31;31.58;;;18.83;;
59504;SDS011;45321;53.200;5.814;2023-02-15T03:07:01;26.63;;;19.10;;
59504;SDS011;45321;53.200;5.814;2023-02-15T03:12:15;28.92;;;19.08;;
59504;SDS011;45321;53.200;5.814;2023-02-15T03:14:55;23.83;;;20.13;;
59504;SDS011;45321;53.200;5.814;2023-02-15T03:17:29;29.77;;;19.63;;
59504;SDS011;45321;53.200;5.814;2023-02-15T03:20:07;32.10;;;20.30;;
59504;SDS011;45321;53.200;5.814;2023-02-15T03:22:44;33.90;;;19.65;;
59504;SDS011;45321;53.200;5.814;2023-02-15T03:25:18;22.65;;;19.65;;
59504;SDS011;45321;53.200;5.814;2023-02-15T03:28:09;21.85;;;19.13;;
59504;SDS011;45321;53.200;5.814;2023-02-15T03:30:38;23.25;;;18.55;;
59504;SDS011;45321;53.200;5.814;2023-02-15T03:33:07;22.48;;;19.40;;
59504;SDS011;45321;53.200;5.814;2023-02-15T03:35:49;27.38;;;18.73;;
59504;SDS011;45321;53.200;5.814;2023-02-15T03:38:29;35.75;;;19.13;;
59504;SDS011;45321;53.200;5.814;2023-02-15T03:41:05;39.42;;;19.20;;
59504;SDS011;45321;53.200;5.814;2023-02-15T03:46:30;45.22;;;21.17;;
59504;SDS011;45321;53.200;5.814;2023-02-15T03:49:28;28.07;;;20.60;;
59504;SDS011;45321;53.200;5.814;2023-02-15T03:52:07;56.13;;;22.05;;
59504;SDS011;45321;53.200;5.814;2023-02-15T03:54:35;46.03;;;20.83;;
59504;SDS011;45321;53.200;5.814;2023-02-15T03:57:16;98.72;;;21.63;;
59504;SDS011;45321;53.200;5.814;2023-02-15T04:00:21;59.53;;;19.60;;
59504;SDS011;45321;53.200;5.814;2023-02-15T04:03:28;54.88;;;19.75;;
59504;SDS011;45321;53.200;5.814;2023-02-15T04:06:08;25.38;;;20.45;;
59504;SDS011;45321;53.200;5.814;2023-02-15T04:08:34;25.38;;;19.95;;
59504;SDS011;45321;53.200;5.814;2023-02-15T04:11:18;30.95;;;20.10;;
59504;SDS011;45321;53.200;5.814;2023-02-15T04:13:44;24.55;;;20.25;;
59504;SDS011;45321;53.200;5.814;2023-02-15T04:16:10;59.10;;;21.02;;
59504;SDS011;45321;53.200;5.814;2023-02-15T04:18:36;49.55;;;20.02;;
59504;SDS011;45321;53.200;5.814;2023-02-15T04:21:27;40.85;;;19.75;;
59504;SDS011;45321;53.200;5.814;2023-02-15T04:24:13;46.95;;;20.98;;
59504;SDS011;45321;53.200;5.814;2023-02-15T04:26:58;31.45;;;21.63;;
59504;SDS011;45321;53.200;5.814;2023-02-15T04:29:25;30.33;;;21.95;;
59504;SDS011;45321;53.200;5.814;2023-02-15T04:31:54;26.83;;;22.63;;
59504;SDS011;45321;53.200;5.814;2023-02-15T04:34:20;30.33;;;23.48;;
59504;SDS011;45321;53.200;5.814;2023-02-15T04:36:46;24.20;;;21.05;;
59504;SDS011;45321;53.200;5.814;2023-02-15T04:39:13;29.05;;;24.52;;
59504;SDS011;45321;53.200;5.814;2023-02-15T04:41:39;32.85;;;23.20;;
59504;SDS011;45321;53.200;5.814;2023-02-15T04:44:06;34.22;;;22.20;;
59504;SDS011;45321;53.200;5.814;2023-02-15T04:46:32;26.45;;;22.88;;
59504;SDS011;45321;53.200;5.814;2023-02-15T04:48:57;28.70;;;24.60;;
59504;SDS011;45321;53.200;5.814;2023-02-15T04:51:32;30.58;;;25.08;;
59504;SDS011;45321;53.200;5.814;2023-02-15T04:53:58;30.10;;;24.73;;
59504;SDS011;45321;53.200;5.814;2023-02-15T04:56:24;32.53;;;25.40;;
59504;SDS011;45321;53.200;5.814;2023-02-15T04:58:49;30.58;;;24.25;;
59504;SDS011;45321;53.200;5.814;2023-02-15T05:01:16;29.88;;;24.73;;
59504;SDS011;45321;53.200;5.814;2023-02-15T05:03:42;29.80;;;25.40;;
59504;SDS011;45321;53.200;5.814;2023-02-15T05:06:08;32.05;;;26.48;;
59504;SDS011;45321;53.200;5.814;2023-02-15T05:08:34;30.75;;;26.17;;
59504;SDS011;45321;53.200;5.814;2023-02-15T05:10:59;40.17;;;26.73;;
59504;SDS011;45321;53.200;5.814;2023-02-15T05:13:25;55.13;;;27.15;;
59504;SDS011;45321;53.200;5.814;2023-02-15T05:15:51;34.10;;;26.67;;
59504;SDS011;45321;53.200;5.814;2023-02-15T05:18:18;40.75;;;26.63;;
59504;SDS011;45321;53.200;5.814;2023-02-15T05:20:45;33.40;;;26.25;;
59504;SDS011;45321;53.200;5.814;2023-02-15T05:23:11;35.67;;;28.08;;
59504;SDS011;45321;53.200;5.814;2023-02-15T05:25:37;34.15;;;27.58;;
59504;SDS011;45321;53.200;5.814;2023-02-15T05:28:21;31.98;;;26.38;;
59504;SDS011;45321;53.200;5.814;2023-02-15T05:31:05;35.17;;;27.05;;
59504;SDS011;45321;53.200;5.814;2023-02-15T05:33:34;33.80;;;26.38;;
59504;SDS011;45321;53.200;5.814;2023-02-15T05:36:01;32.70;;;27.05;;
59504;SDS011;45321;53.200;5.814;2023-02-15T05:38:27;31.95;;;26.75;;
59504;SDS011;45321;53.200;5.814;2023-02-15T05:40:53;35.60;;;27.80;;
59504;SDS011;45321;53.200;5.814;2023-02-15T05:43:19;34.70;;;26.40;;
59504;SDS011;45321;53.200;5.814;2023-02-15T05:45:46;32.28;;;27.15;;
59504;SDS011;45321;53.200;5.814;2023-02-15T05:48:13;35.42;;;28.40;;
59504;SDS011;45321;53.200;5.814;2023-02-15T05:50:40;35.55;;;29.88;;
59504;SDS011;45321;53.200;5.814;2023-02-15T05:53:05;39.17;;;28.70;;
59504;SDS011;45321;53.200;5.814;2023-02-15T05:55:31;35.17;;;27.80;;
59504;SDS011;45321;53.200;5.814;2023-02-15T05:57:57;36.22;;;29.48;;
59504;SDS011;45321;53.200;5.814;2023-02-15T06:00:23;35.47;;;28.05;;
59504;SDS011;45321;53.200;5.814;2023-02-15T06:02:49;36.00;;;28.05;;
59504;SDS011;45321;53.200;5.814;2023-02-15T06:05:14;37.47;;;29.30;;
59504;SDS011;45321;53.200;5.814;2023-02-15T06:07:42;38.80;;;29.70;;
59504;SDS011;45321;53.200;5.814;2023-02-15T06:10:09;41.88;;;31.23;;
59504;SDS011;45321;53.200;5.814;2023-02-15T06:12:35;41.58;;;31.60;;
59504;SDS011;45321;53.200;5.814;2023-02-15T06:15:01;35.70;;;28.67;;
59504;SDS011;45321;53.200;5.814;2023-02-15T06:17:27;41.75;;;30.35;;
59504;SDS011;45321;53.200;5.814;2023-02-15T06:19:53;40.53;;;30.98;;
59504;SDS011;45321;53.200;5.814;2023-02-15T06:22:18;43.13;;;31.65;;
59504;SDS011;45321;53.200;5.814;2023-02-15T06:24:48;39.83;;;30.63;;
59504;SDS011;45321;53.200;5.814;2023-02-15T06:27:13;43.20;;;30.80;;
59504;SDS011;45321;53.200;5.814;2023-02-15T06:29:39;40.30;;;30.67;;
59504;SDS011;45321;53.200;5.814;2023-02-15T06:32:05;41.03;;;30.98;;
59504;SDS011;45321;53.200;5.814;2023-02-15T06:34:31;42.33;;;32.17;;
59504;SDS011;45321;53.200;5.814;2023-02-15T06:36:57;42.45;;;30.83;;
59504;SDS011;45321;53.200;5.814;2023-02-15T06:39:23;46.88;;;33.83;;
59504;SDS011;45321;53.200;5.814;2023-02-15T06:41:49;46.08;;;32.95;;
59504;SDS011;45321;53.200;5.814;2023-02-15T06:44:14;45.72;;;32.40;;
59504;SDS011;45321;53.200;5.814;2023-02-15T06:46:40;47.22;;;33.35;;
59504;SDS011;45321;53.200;5.814;2023-02-15T06:49:06;47.78;;;33.58;;
59504;SDS011;45321;53.200;5.814;2023-02-15T06:51:32;47.40;;;32.80;;
59504;SDS011;45321;53.200;5.814;2023-02-15T06:53:59;46.22;;;33.88;;
59504;SDS011;45321;53.200;5.814;2023-02-15T06:56:25;48.67;;;35.00;;
59504;SDS011;45321;53.200;5.814;2023-02-15T06:58:51;50.80;;;35.72;;
59504;SDS011;45321;53.200;5.814;2023-02-15T07:01:20;51.67;;;35.38;;
59504;SDS011;45321;53.200;5.814;2023-02-15T07:03:45;53.72;;;35.67;;
59504;SDS011;45321;53.200;5.814;2023-02-15T07:06:11;55.72;;;38.03;;
59504;SDS011;45321;53.200;5.814;2023-02-15T07:08:38;71.60;;;43.00;;
59504;SDS011;45321;53.200;5.814;2023-02-15T07:11:05;68.57;;;41.88;;
59504;SDS011;45321;53.200;5.814;2023-02-15T07:13:49;84.47;;;41.30;;
59504;SDS011;45321;53.200;5.814;2023-02-15T07:16:17;72.90;;;42.45;;
59504;SDS011;45321;53.200;5.814;2023-02-15T07:18:43;80.38;;;43.67;;
59504;SDS011;45321;53.200;5.814;2023-02-15T07:21:09;62.17;;;42.67;;
59504;SDS011;45321;53.200;5.814;2023-02-15T07:23:36;52.88;;;35.28;;
59504;SDS011;45321;53.200;5.814;2023-02-15T07:26:03;53.08;;;36.00;;
59504;SDS011;45321;53.200;5.814;2023-02-15T07:28:30;61.95;;;36.83;;
59504;SDS011;45321;53.200;5.814;2023-02-15T07:30:56;84.80;;;35.25;;
59504;SDS011;45321;53.200;5.814;2023-02-15T07:33:23;60.92;;;36.63;;
59504;SDS011;45321;53.200;5.814;2023-02-15T07:35:58;60.38;;;38.30;;
59504;SDS011;45321;53.200;5.814;2023-02-15T07:38:29;56.83;;;38.60;;
59504;SDS011;45321;53.200;5.814;2023-02-15T07:40:59;53.15;;;38.08;;
59504;SDS011;45321;53.200;5.814;2023-02-15T07:43:30;57.50;;;36.63;;
59504;SDS011;45321;53.200;5.814;2023-02-15T07:46:01;52.22;;;35.97;;
59504;SDS011;45321;53.200;5.814;2023-02-15T07:48:29;51.83;;;34.83;;
59504;SDS011;45321;53.200;5.814;2023-02-15T07:50:58;51.92;;;36.55;;
59504;SDS011;45321;53.200;5.814;2023-02-15T07:53:25;51.63;;;36.90;;
59504;SDS011;45321;53.200;5.814;2023-02-15T07:55:50;51.13;;;35.97;;
59504;SDS011;45321;53.200;5.814;2023-02-15T07:58:17;53.90;;;37.22;;
59504;SDS011;45321;53.200;5.814;2023-02-15T08:00:43;51.85;;;37.05;;
59504;SDS011;45321;53.200;5.814;2023-02-15T08:03:26;47.97;;;36.20;;
59504;SDS011;45321;53.200;5.814;2023-02-15T08:05:57;52.78;;;36.80;;
59504;SDS011;45321;53.200;5.814;2023-02-15T08:08:24;51.33;;;36.42;;
59504;SDS011;45321;53.200;5.814;2023-02-15T08:10:59;168.07;;;102.35;;
59504;SDS011;45321;53.200;5.814;2023-02-15T08:13:45;88.65;;;54.75;;
59504;SDS011;45321;53.200;5.814;2023-02-15T08:16:40;114.47;;;64.10;;
59504;SDS011;45321;53.200;5.814;2023-02-15T08:21:42;61.38;;;41.83;;
59504;SDS011;45321;53.200;5.814;2023-02-15T08:24:10;60.33;;;40.05;;
59504;SDS011;45321;53.200;5.814;2023-02-15T08:26:40;50.10;;;36.42;;
59504;SDS011;45321;53.200;5.814;2023-02-15T08:29:08;50.38;;;36.25;;
59504;SDS011;45321;53.200;5.814;2023-02-15T08:31:35;52.08;;;38.80;;
59504;SDS011;45321;53.200;5.814;2023-02-15T08:34:02;55.20;;;39.88;;
59504;SDS011;45321;53.200;5.814;2023-02-15T08:36:29;56.13;;;41.45;;
59504;SDS011;45321;53.200;5.814;2023-02-15T08:39:00;54.75;;;38.42;;
59504;SDS011;45321;53.200;5.814;2023-02-15T08:41:28;55.63;;;37.38;;
59504;SDS011;45321;53.200;5.814;2023-02-15T08:43:56;56.85;;;38.45;;
59504;SDS011;45321;53.200;5.814;2023-02-15T08:46:24;54.60;;;37.05;;
59504;SDS011;45321;53.200;5.814;2023-02-15T08:48:52;72.03;;;50.80;;
59504;SDS011;45321;53.200;5.814;2023-02-15T08:51:20;56.45;;;38.55;;
59504;SDS011;45321;53.200;5.814;2023-02-15T08:53:51;51.25;;;35.90;;
59504;SDS011;45321;53.200;5.814;2023-02-15T08:56:19;59.17;;;41.13;;
59504;SDS011;45321;53.200;5.814;2023-02-15T08:58:47;55.60;;;38.08;;
59504;SDS011;45321;53.200;5.814;2023-02-15T09:01:13;55.60;;;37.75;;
59504;SDS011;45321;53.200;5.814;2023-02-15T09:03:46;54.55;;;36.78;;
59504;SDS011;45321;53.200;5.814;2023-02-15T09:06:14;53.38;;;37.80;;
59504;SDS011;45321;53.200;5.814;2023-02-15T09:08:43;52.85;;;39.30;;
59504;SDS011;45321;53.200;5.814;2023-02-15T09:11:11;55.05;;;37.92;;
59504;SDS011;45321;53.200;5.814;2023-02-15T09:13:37;55.22;;;36.88;;
59504;SDS011;45321;53.200;5.814;2023-02-15T09:16:06;57.08;;;37.58;;
59504;SDS011;45321;53.200;5.814;2023-02-15T09:18:34;52.65;;;36.55;;
59504;SDS011;45321;53.200;5.814;2023-02-15T09:21:09;52.70;;;35.85;;
59504;SDS011;45321;53.200;5.814;2023-02-15T09:23:38;56.05;;;38.10;;
59504;SDS011;45321;53.200;5.814;2023-02-15T09:26:10;52.45;;;35.85;;
59504;SDS011;45321;53.200;5.814;2023-02-15T09:28:37;51.17;;;34.92;;
59504;SDS011;45321;53.200;5.814;2023-02-15T09:31:07;50.47;;;34.47;;
59504;SDS011;45321;53.200;5.814;2023-02-15T09:33:38;51.40;;;35.97;;
59504;SDS011;45321;53.200;5.814;2023-02-15T09:36:06;49.72;;;35.20;;
59504;SDS011;45321;53.200;5.814;2023-02-15T09:38:47;50.70;;;35.38;;
59504;SDS011;45321;53.200;5.814;2023-02-15T09:53:03;57.53;;;37.33;;
59504;SDS011;45321;53.200;5.814;2023-02-15T10:06:32;58.55;;;39.75;;
59504;SDS011;45321;53.200;5.814;2023-02-15T10:11:53;50.57;;;33.67;;
59504;SDS011;45321;53.200;5.814;2023-02-15T10:17:41;53.03;;;35.15;;
59504;SDS011;45321;53.200;5.814;2023-02-15T10:23:12;49.97;;;34.38;;
59504;SDS011;45321;53.200;5.814;2023-02-15T10:29:12;50.80;;;34.42;;
59504;SDS011;45321;53.200;5.814;2023-02-15T10:34:17;55.28;;;34.70;;
59504;SDS011;45321;53.200;5.814;2023-02-15T10:50:34;49.85;;;33.63;;
59504;SDS011;45321;53.200;5.814;2023-02-15T11:01:18;54.70;;;33.33;;
59504;SDS011;45321;53.200;5.814;2023-02-15T11:04:30;52.28;;;34.95;;
59504;SDS011;45321;53.200;5.814;2023-02-15T11:06:59;50.90;;;33.15;;
59504;SDS011;45321;53.200;5.814;2023-02-15T11:09:33;55.95;;;37.25;;
59504;SDS011;45321;53.200;5.814;2023-02-15T11:12:04;57.70;;;36.25;;
59504;SDS011;45321;53.200;5.814;2023-02-15T11:17:09;52.13;;;34.80;;
59504;SDS011;45321;53.200;5.814;2023-02-15T11:19:47;53.55;;;35.13;;
59504;SDS011;45321;53.200;5.814;2023-02-15T11:22:14;52.80;;;33.70;;
59504;SDS011;45321;53.200;5.814;2023-02-15T11:24:41;50.63;;;33.67;;
59504;SDS011;45321;53.200;5.814;2023-02-15T11:29:38;48.78;;;32.90;;
59504;SDS011;45321;53.200;5.814;2023-02-15T11:32:21;51.05;;;33.53;;
59504;SDS011;45321;53.200;5.814;2023-02-15T11:34:54;50.20;;;33.70;;
59504;SDS011;45321;53.200;5.814;2023-02-15T11:37:31;47.97;;;30.50;;
59504;SDS011;45321;53.200;5.814;2023-02-15T11:40:02;47.38;;;29.70;;
59504;SDS011;45321;53.200;5.814;2023-02-15T11:42:38;44.63;;;30.10;;
59504;SDS011;45321;53.200;5.814;2023-02-15T11:45:07;47.55;;;30.77;;
59504;SDS011;45321;53.200;5.814;2023-02-15T11:47:48;47.97;;;30.88;;
59504;SDS011;45321;53.200;5.814;2023-02-15T11:50:15;47.08;;;31.08;;
59504;SDS011;45321;53.200;5.814;2023-02-15T11:52:47;45.78;;;30.15;;
59504;SDS011;45321;53.200;5.814;2023-02-15T11:55:14;44.78;;;29.40;;
59504;SDS011;45321;53.200;5.814;2023-02-15T11:57:47;43.92;;;30.42;;
59504;SDS011;45321;53.200;5.814;2023-02-15T12:00:30;43.95;;;30.40;;
59504;SDS011;45321;53.200;5.814;2023-02-15T12:03:00;44.75;;;30.65;;
59504;SDS011;45321;53.200;5.814;2023-02-15T12:05:40;45.40;;;30.15;;
59504;SDS011;45321;53.200;5.814;2023-02-15T12:08:12;44.15;;;30.27;;
59504;SDS011;45321;53.200;5.814;2023-02-15T12:13:37;42.90;;;30.45;;
59504;SDS011;45321;53.200;5.814;2023-02-15T12:16:20;44.05;;;30.90;;
59504;SDS011;45321;53.200;5.814;2023-02-15T12:18:46;47.95;;;33.72;;
59504;SDS011;45321;53.200;5.814;2023-02-15T12:21:25;45.42;;;31.75;;
59504;SDS011;45321;53.200;5.814;2023-02-15T12:23:54;46.47;;;32.17;;
59504;SDS011;45321;53.200;5.814;2023-02-15T12:26:32;48.70;;;31.80;;
59504;SDS011;45321;53.200;5.814;2023-02-15T12:29:00;44.42;;;31.17;;
59504;SDS011;45321;53.200;5.814;2023-02-15T12:34:02;43.88;;;30.13;;
59504;SDS011;45321;53.200;5.814;2023-02-15T12:36:42;42.85;;;30.15;;
59504;SDS011;45321;53.200;5.814;2023-02-15T12:41:37;42.13;;;30.42;;
59504;SDS011;45321;53.200;5.814;2023-02-15T12:44:06;45.33;;;31.23;;
59504;SDS011;45321;53.200;5.814;2023-02-15T12:46:40;46.45;;;31.48;;
59504;SDS011;45321;53.200;5.814;2023-02-15T12:51:45;46.65;;;31.27;;
59504;SDS011;45321;53.200;5.814;2023-02-15T13:00:00;51.25;;;34.25;;
59504;SDS011;45321;53.200;5.814;2023-02-15T13:02:30;47.45;;;33.10;;
59504;SDS011;45321;53.200;5.814;2023-02-15T13:05:18;47.15;;;31.65;;
59504;SDS011;45321;53.200;5.814;2023-02-15T13:08:08;46.88;;;33.08;;
59504;SDS011;45321;53.200;5.814;2023-02-15T13:10:41;47.65;;;33.58;;
59504;SDS011;45321;53.200;5.814;2023-02-15T13:13:19;48.83;;;34.45;;
59504;SDS011;45321;53.200;5.814;2023-02-15T13:15:48;55.50;;;34.33;;
59504;SDS011;45321;53.200;5.814;2023-02-15T13:21:21;52.10;;;31.73;;
59504;SDS011;45321;53.200;5.814;2023-02-15T13:23:55;44.47;;;32.47;;
59504;SDS011;45321;53.200;5.814;2023-02-15T13:26:26;52.60;;;33.60;;
59504;SDS011;45321;53.200;5.814;2023-02-15T13:28:59;55.55;;;31.88;;
59504;SDS011;45321;53.200;5.814;2023-02-15T13:31:46;48.42;;;32.47;;
59504;SDS011;45321;53.200;5.814;2023-02-15T13:34:20;50.25;;;32.10;;
59504;SDS011;45321;53.200;5.814;2023-02-15T13:37:07;50.53;;;32.03;;
59504;SDS011;45321;53.200;5.814;2023-02-15T13:40:12;50.00;;;31.88;;
59504;SDS011;45321;53.200;5.814;2023-02-15T13:42:57;45.47;;;31.90;;
59504;SDS011;45321;53.200;5.814;2023-02-15T13:45:33;49.03;;;33.10;;
59504;SDS011;45321;53.200;5.814;2023-02-15T13:53:54;55.10;;;33.80;;
59504;SDS011;45321;53.200;5.814;2023-02-15T14:01:44;47.58;;;32.08;;
59504;SDS011;45321;53.200;5.814;2023-02-15T14:10:29;47.67;;;31.98;;
59504;SDS011;45321;53.200;5.814;2023-02-15T14:21:53;46.08;;;31.25;;
59504;SDS011;45321;53.200;5.814;2023-02-15T14:24:30;46.95;;;31.13;;
59504;SDS011;45321;53.200;5.814;2023-02-15T14:30:02;47.38;;;31.90;;
59504;SDS011;45321;53.200;5.814;2023-02-15T14:32:48;48.55;;;32.08;;
59504;SDS011;45321;53.200;5.814;2023-02-15T14:35:19;46.22;;;31.60;;
59504;SDS011;45321;53.200;5.814;2023-02-15T14:37:55;49.35;;;31.67;;
59504;SDS011;45321;53.200;5.814;2023-02-15T14:40:57;46.05;;;31.70;;
59504;SDS011;45321;53.200;5.814;2023-02-15T14:49:15;56.10;;;35.20;;
59504;SDS011;45321;53.200;5.814;2023-02-15T14:54:08;60.17;;;35.75;;
59504;SDS011;45321;53.200;5.814;2023-02-15T14:56:35;59.28;;;35.40;;
59504;SDS011;45321;53.200;5.814;2023-02-15T14:59:14;56.70;;;34.58;;
59504;SDS011;45321;53.200;5.814;2023-02-15T15:01:50;48.90;;;33.53;;
59504;SDS011;45321;53.200;5.814;2023-02-15T15:05:07;46.92;;;31.42;;
59504;SDS011;45321;53.200;5.814;2023-02-15T15:07:37;51.30;;;33.28;;
59504;SDS011;45321;53.200;5.814;2023-02-15T15:12:43;45.63;;;29.85;;
59504;SDS011;45321;53.200;5.814;2023-02-15T15:18:01;50.33;;;32.72;;
59504;SDS011;45321;53.200;5.814;2023-02-15T15:25:48;56.35;;;34.28;;
59504;SDS011;45321;53.200;5.814;2023-02-15T15:34:37;51.90;;;34.15;;
59504;SDS011;45321;53.200;5.814;2023-02-15T15:48:38;52.00;;;34.97;;
59504;SDS011;45321;53.200;5.814;2023-02-15T15:51:06;57.65;;;35.08;;
59504;SDS011;45321;53.200;5.814;2023-02-15T15:53:40;55.05;;;35.53;;
59504;SDS011;45321;53.200;5.814;2023-02-15T15:56:12;49.53;;;34.15;;
59504;SDS011;45321;53.200;5.814;2023-02-15T15:58:43;52.20;;;35.03;;
59504;SDS011;45321;53.200;5.814;2023-02-15T16:01:12;50.72;;;34.47;;
59504;SDS011;45321;53.200;5.814;2023-02-15T16:03:48;53.70;;;35.10;;
59504;SDS011;45321;53.200;5.814;2023-02-15T16:06:31;50.47;;;35.60;;
59504;SDS011;45321;53.200;5.814;2023-02-15T16:09:17;56.17;;;37.33;;
59504;SDS011;45321;53.200;5.814;2023-02-15T16:11:46;54.28;;;35.72;;
59504;SDS011;45321;53.200;5.814;2023-02-15T16:14:35;51.58;;;36.50;;
59504;SDS011;45321;53.200;5.814;2023-02-15T16:17:04;54.22;;;35.78;;
59504;SDS011;45321;53.200;5.814;2023-02-15T16:19:38;57.17;;;38.28;;
59504;SDS011;45321;53.200;5.814;2023-02-15T16:22:16;52.58;;;37.45;;
59504;SDS011;45321;53.200;5.814;2023-02-15T16:27:49;57.20;;;40.47;;
59504;SDS011;45321;53.200;5.814;2023-02-15T16:30:24;55.55;;;39.15;;
59504;SDS011;45321;53.200;5.814;2023-02-15T16:35:37;60.40;;;38.05;;
59504;SDS011;45321;53.200;5.814;2023-02-15T16:38:08;55.20;;;38.28;;
59504;SDS011;45321;53.200;5.814;2023-02-15T16:43:06;59.45;;;38.95;;
59504;SDS011;45321;53.200;5.814;2023-02-15T16:45:39;58.28;;;39.65;;
59504;SDS011;45321;53.200;5.814;2023-02-15T16:48:10;62.10;;;40.40;;
59504;SDS011;45321;53.200;5.814;2023-02-15T16:50:46;58.33;;;39.08;;
59504;SDS011;45321;53.200;5.814;2023-02-15T16:53:17;59.25;;;40.03;;
59504;SDS011;45321;53.200;5.814;2023-02-15T16:55:47;60.10;;;40.20;;
59504;SDS011;45321;53.200;5.814;2023-02-15T16:58:20;59.55;;;41.55;;
59504;SDS011;45321;53.200;5.814;2023-02-15T17:00:54;62.20;;;42.10;;
59504;SDS011;45321;53.200;5.814;2023-02-15T17:03:23;63.15;;;41.03;;
59504;SDS011;45321;53.200;5.814;2023-02-15T17:05:51;60.75;;;40.38;;
59504;SDS011;45321;53.200;5.814;2023-02-15T17:08:26;64.55;;;41.70;;
59504;SDS011;45321;53.200;5.814;2023-02-15T17:13:25;62.75;;;41.80;;
59504;SDS011;45321;53.200;5.814;2023-02-15T17:18:23;65.82;;;42.70;;
59504;SDS011;45321;53.200;5.814;2023-02-15T17:20:52;65.53;;;42.13;;
59504;SDS011;45321;53.200;5.814;2023-02-15T17:23:31;62.83;;;42.55;;
59504;SDS011;45321;53.200;5.814;2023-02-15T17:26:00;69.40;;;44.47;;
59504;SDS011;45321;53.200;5.814;2023-02-15T17:28:45;65.25;;;42.88;;
59504;SDS011;45321;53.200;5.814;2023-02-15T17:31:16;65.65;;;42.97;;
59504;SDS011;45321;53.200;5.814;2023-02-15T17:33:43;61.83;;;44.40;;
59504;SDS011;45321;53.200;5.814;2023-02-15T17:36:28;67.20;;;44.58;;
59504;SDS011;45321;53.200;5.814;2023-02-15T17:41:31;66.90;;;46.85;;
59504;SDS011;45321;53.200;5.814;2023-02-15T17:43:59;65.15;;;44.13;;
59504;SDS011;45321;53.200;5.814;2023-02-15T17:46:26;63.65;;;42.60;;
59504;SDS011;45321;53.200;5.814;2023-02-15T17:48:57;63.55;;;44.78;;
59504;SDS011;45321;53.200;5.814;2023-02-15T17:51:23;68.95;;;45.90;;
59504;SDS011;45321;53.200;5.814;2023-02-15T17:53:49;65.35;;;44.97;;
59504;SDS011;45321;53.200;5.814;2023-02-15T17:56:34;64.43;;;45.55;;
59504;SDS011;45321;53.200;5.814;2023-02-15T17:59:01;69.35;;;45.25;;
59504;SDS011;45321;53.200;5.814;2023-02-15T18:01:42;72.38;;;47.47;;